createdAt,value
2018-09-03T03:42:34.215Z,98.40
2018-09-03T03:45:08.256Z,98.70
2018-09-03T03:47:37.778Z,98.90
2018-09-03T03:50:10.028Z,99.30
2018-09-03T03:52:39.014Z,99.30
2018-09-03T03:55:10.211Z,99.40
2018-09-03T03:57:39.192Z,99.40
2018-09-03T04:00:17.672Z,99.00
2018-09-03T04:02:46.607Z,99.20
2018-09-03T04:05:15.282Z,99.10
2018-09-03T04:07:47.114Z,99.20
2018-09-03T04:10:17.101Z,98.90
2018-09-03T04:12:51.458Z,98.00
2018-09-03T04:15:20.327Z,99.10
2018-09-03T04:17:55.053Z,99.20
2018-09-03T04:20:24.820Z,99.60
2018-09-03T04:22:55.333Z,99.50
2018-09-03T04:25:24.610Z,99.40
2018-09-03T04:27:53.715Z,99.40
2018-09-03T04:30:22.681Z,99.60
2018-09-03T04:32:51.482Z,99.60
2018-09-03T04:35:20.172Z,99.80
2018-09-03T04:37:48.971Z,99.90
2018-09-03T04:40:18.386Z,99.90
2018-09-03T04:42:51.153Z,99.90
2018-09-03T04:45:25.221Z,99.90
2018-09-03T04:47:56.031Z,99.90
2018-09-03T04:51:54.545Z,99.90
2018-09-03T04:54:25.462Z,99.90
2018-09-03T04:56:56.341Z,99.90
2018-09-03T04:59:25.290Z,99.90
2018-09-03T05:01:57.388Z,99.90
2018-09-03T05:04:26.372Z,99.90
2018-09-03T05:06:57.610Z,99.90
2018-09-03T05:09:27.271Z,99.90
2018-09-03T05:11:56.073Z,99.90
2018-09-03T05:14:24.735Z,99.90
2018-09-03T05:16:53.470Z,99.90
2018-09-03T05:19:22.786Z,99.90
2018-09-03T05:21:57.083Z,99.90
2018-09-03T05:24:25.787Z,99.70
2018-09-03T05:26:58.289Z,99.40
2018-09-03T05:29:32.247Z,99.30
2018-09-03T05:32:01.155Z,99.20
2018-09-03T05:34:29.995Z,99.40
2018-09-03T05:37:03.494Z,99.40
2018-09-03T05:39:32.452Z,99.50
2018-09-03T05:42:06.096Z,99.50
2018-09-03T05:44:35.845Z,99.30
2018-09-03T05:47:08.491Z,98.90
2018-09-03T05:49:39.470Z,98.90
2018-09-03T05:52:10.476Z,98.90
2018-09-03T05:54:43.182Z,98.60
2018-09-03T05:57:12.090Z,98.30
2018-09-03T05:59:42.107Z,98.20
2018-09-03T06:02:12.205Z,98.30
2018-09-03T06:04:43.343Z,98.30
2018-09-03T06:07:13.967Z,98.90
2018-09-03T06:09:42.823Z,98.80
2018-09-03T06:12:12.163Z,98.90
2018-09-03T06:14:41.290Z,98.90
2018-09-03T06:17:15.018Z,98.90
2018-09-03T06:19:44.369Z,99.00
2018-09-03T06:25:15.438Z,99.10
2018-09-03T06:27:46.606Z,99.40
2018-09-03T06:30:15.504Z,99.60
2018-09-03T06:32:44.349Z,99.80
2018-09-03T06:35:25.167Z,99.80
2018-09-03T06:37:55.100Z,99.80
2018-09-03T06:43:08.792Z,99.60
2018-09-03T06:48:28.627Z,99.90
2018-09-03T06:51:06.998Z,99.90
2018-09-03T06:53:44.048Z,99.90
2018-09-03T06:56:22.071Z,99.90
2018-09-03T06:58:50.994Z,99.90
2018-09-03T07:01:19.822Z,99.90
2018-09-03T07:03:49.479Z,99.40
2018-09-03T07:06:20.018Z,99.10
2018-09-03T07:08:49.837Z,99.40
2018-09-03T07:11:28.904Z,99.20
2018-09-03T07:14:08.435Z,99.00
2018-09-03T07:16:41.189Z,99.00
2018-09-03T07:19:09.967Z,98.90
2018-09-03T07:21:40.409Z,99.00
2018-09-03T07:24:12.580Z,99.00
2018-09-03T07:26:44.187Z,99.00
2018-09-03T07:29:16.794Z,99.00
2018-09-03T07:31:45.877Z,99.40
2018-09-03T07:34:21.098Z,99.60
2018-09-03T07:36:50.476Z,99.80
2018-09-03T07:39:39.097Z,99.70
2018-09-03T07:42:09.242Z,99.60
2018-09-03T07:45:06.666Z,99.40
2018-09-03T07:47:36.866Z,99.30
2018-09-03T07:50:12.020Z,99.10
2018-09-03T07:52:41.335Z,98.70
2018-09-03T07:55:14.061Z,98.50
2018-09-03T07:57:46.991Z,98.50
2018-09-03T08:00:18.614Z,98.20
2018-09-03T08:02:47.841Z,98.20
2018-09-03T08:05:21.263Z,97.80
2018-09-03T08:08:00.686Z,97.80
2018-09-03T08:13:25.727Z,98.00
2018-09-03T08:15:59.563Z,97.80
2018-09-03T08:18:29.214Z,97.50
2018-09-03T08:20:57.971Z,96.90
2018-09-03T08:23:30.863Z,96.50
2018-09-03T08:25:59.547Z,95.60
2018-09-03T08:28:28.419Z,95.70
2018-09-03T08:30:57.191Z,96.30
2018-09-03T08:33:29.838Z,96.10
2018-09-03T08:36:07.391Z,95.80
2018-09-03T08:38:38.890Z,96.00
2018-09-03T08:41:20.177Z,95.60
2018-09-03T08:43:52.386Z,96.00
2018-09-03T08:46:29.089Z,95.80
2018-09-03T08:48:59.176Z,96.20
2018-09-03T08:51:30.407Z,96.80
2018-09-03T08:54:02.498Z,97.10
2018-09-03T08:56:33.599Z,97.40
2018-09-03T09:01:38.352Z,97.50
2018-09-03T09:04:15.556Z,97.50
2018-09-03T09:06:49.331Z,97.60
2018-09-03T09:09:20.396Z,97.50
2018-09-03T09:11:59.335Z,97.50
2018-09-03T09:14:37.148Z,97.20
2018-09-03T09:17:11.578Z,97.10
2018-09-03T09:19:40.868Z,97.00
2018-09-03T09:22:11.972Z,97.10
2018-09-03T09:24:40.805Z,96.80
2018-09-03T09:27:09.722Z,97.10
2018-09-03T09:29:40.884Z,97.30
2018-09-03T09:32:22.125Z,97.10
2018-09-03T09:34:54.166Z,97.10
2018-09-03T09:37:22.905Z,97.30
2018-09-03T09:39:57.053Z,96.80
2018-09-03T09:42:36.205Z,97.00
2018-09-03T09:45:20.312Z,96.80
2018-09-03T09:47:49.379Z,96.60
2018-09-03T09:50:30.444Z,96.10
2018-09-03T09:53:22.999Z,95.90
2018-09-03T09:56:01.768Z,95.90
2018-09-03T09:58:35.945Z,96.00
2018-09-03T10:01:19.979Z,96.00
2018-09-03T10:03:54.341Z,95.70
2018-09-03T10:06:28.283Z,95.10
2018-09-03T10:09:02.831Z,94.80
2018-09-03T10:14:51.748Z,94.60
2018-09-03T10:21:02.568Z,95.80
2018-09-03T10:50:43.358Z,93.30
2018-09-03T10:53:29.267Z,93.20
2018-09-03T10:56:08.108Z,93.20
2018-09-03T10:58:49.236Z,93.30
2018-09-03T11:01:27.344Z,92.40
2018-09-03T11:04:01.886Z,91.80
2018-09-03T11:06:42.313Z,91.00
2018-09-03T11:09:18.332Z,90.80
2018-09-03T11:11:54.699Z,90.70
2018-09-03T11:14:31.004Z,90.40
2018-09-03T11:17:08.336Z,90.40
2018-09-03T11:19:49.103Z,90.60
2018-09-03T11:22:23.195Z,90.80
2018-09-03T11:24:57.191Z,90.70
2018-09-03T11:27:36.452Z,90.30
2018-09-03T11:30:13.315Z,90.10
2018-09-03T11:33:09.463Z,90.00
2018-09-03T11:36:16.935Z,89.80
2018-09-03T11:45:49.900Z,87.90
2018-09-03T11:48:24.162Z,89.50
2018-09-03T11:51:20.955Z,90.00
2018-09-03T11:53:58.474Z,88.70
2018-09-03T11:56:36.777Z,89.50
2018-09-03T11:59:16.631Z,90.10
2018-09-03T18:41:27.589Z,99.90
2018-09-03T18:53:04.084Z,99.90
2018-09-03T18:55:39.467Z,99.90
2018-09-03T18:58:13.109Z,99.90
2018-09-03T19:00:54.003Z,99.90
2018-09-03T19:03:32.230Z,99.90
2018-09-03T19:08:51.599Z,99.90
2018-09-03T19:11:28.358Z,99.90
2018-09-03T19:17:00.119Z,99.90
2018-09-03T19:19:43.968Z,99.90
2018-09-03T19:22:20.188Z,99.90
2018-09-03T19:25:00.760Z,99.90
2018-09-03T19:27:42.638Z,99.90
2018-09-03T19:30:21.452Z,99.90
2018-09-03T19:32:57.020Z,99.90
2018-09-03T19:35:33.394Z,99.90
2018-09-03T19:38:14.685Z,99.90
2018-09-03T19:40:49.407Z,99.90
2018-09-03T19:43:28.337Z,99.90
2018-09-03T19:46:05.612Z,99.90
2018-09-03T19:48:39.566Z,99.90
2018-09-03T19:51:13.380Z,99.90
2018-09-03T19:53:49.268Z,99.90
2018-09-03T19:56:28.161Z,99.90
2018-09-03T19:59:05.514Z,99.90
2018-09-03T20:01:41.018Z,99.90
2018-09-03T20:04:24.099Z,99.90
2018-09-03T20:06:58.054Z,99.90
2018-09-03T20:09:30.839Z,99.90
2018-09-03T20:12:08.015Z,99.90
2018-09-03T20:14:47.258Z,99.90
